Time;durP1;ratioP1;P1;durP2;ratioP2;P2;SDS_P1;SDS_P2;PMS_P1;PMS_P2;Temp;Humidity;BMP_temperature;BMP_pressure;BME280_temperature;BME280_humidity;BME280_pressure;Samples;Min_cycle;Max_cycle;Signal;HPM_P1;HPM_P2
2022/12/16 01:04:00;;;;;;;4.00;3.47;;;2.20;99.90;;;;;;6161839;22;2784459;-89
2022/12/16 01:06:31;;;;;;;6.77;3.23;;;2.00;99.90;;;;;;6286492;22;20605;-88
2022/12/16 01:09:04;;;;;;;5.10;3.50;;;2.00;99.90;;;;;;6285308;22;20173;-88
2022/12/16 01:11:46;;;;;;;4.10;2.70;;;2.00;99.90;;;;;;6288212;22;20216;-88
2022/12/16 01:14:22;;;;;;;3.80;2.63;;;1.90;99.90;;;;;;6288082;22;20182;-89
2022/12/16 01:16:53;;;;;;;4.73;2.77;;;1.90;99.90;;;;;;6287594;22;20170;-89
2022/12/16 01:19:26;;;;;;;4.47;2.90;;;1.80;99.90;;;;;;6261248;22;20171;-89
2022/12/16 01:21:58;;;;;;;3.97;3.40;;;1.80;99.90;;;;;;6287266;22;20163;-89
2022/12/16 01:24:29;;;;;;;4.70;3.73;;;1.70;99.90;;;;;;6287906;22;20179;-89
2022/12/16 01:27:03;;;;;;;6.30;3.53;;;1.70;99.90;;;;;;6287118;22;20644;-93
2022/12/16 01:29:38;;;;;;;5.93;3.43;;;1.70;99.90;;;;;;6286350;22;20178;-90
2022/12/16 01:32:14;;;;;;;6.90;3.67;;;1.70;99.90;;;;;;6286442;22;20201;-90
2022/12/16 01:34:51;;;;;;;7.10;3.53;;;1.70;99.90;;;;;;6286155;22;20193;-89
2022/12/16 01:37:25;;;;;;;6.10;3.73;;;1.60;99.90;;;;;;6286190;22;20258;-89
2022/12/16 01:39:56;;;;;;;6.40;3.33;;;1.60;99.90;;;;;;6284894;22;20163;-87
2022/12/16 01:42:30;;;;;;;5.63;3.23;;;1.50;99.90;;;;;;6287538;22;20169;-91
2022/12/16 01:45:29;;;;;;;6.33;3.27;;;1.60;99.90;;;;;;6288006;22;20167;-89
2022/12/16 01:48:08;;;;;;;7.73;3.40;;;1.50;99.90;;;;;;6290313;22;20198;-88
2022/12/16 01:50:44;;;;;;;4.73;3.40;;;1.50;99.90;;;;;;6290803;22;20173;-90
2022/12/16 01:53:18;;;;;;;5.73;3.37;;;1.50;99.90;;;;;;6286659;22;20297;-89
2022/12/16 01:55:53;;;;;;;6.50;3.93;;;1.50;99.90;;;;;;6289638;22;20171;-90
2022/12/16 01:58:27;;;;;;;5.00;3.40;;;1.50;99.90;;;;;;6286828;22;20163;-87
2022/12/16 02:01:02;;;;;;;4.20;3.43;;;1.50;99.90;;;;;;6289564;22;20203;-90
2022/12/16 02:03:38;;;;;;;4.07;3.10;;;1.50;99.90;;;;;;6284971;22;20209;-90
2022/12/16 02:06:14;;;;;;;5.10;3.80;;;1.50;99.90;;;;;;6279954;22;20494;-90
2022/12/16 02:08:49;;;;;;;4.60;3.60;;;1.50;99.90;;;;;;6279717;22;20162;-90
2022/12/16 02:11:33;;;;;;;4.30;3.20;;;1.50;99.90;;;;;;6280333;22;20185;-90
2022/12/16 02:14:21;;;;;;;5.20;3.83;;;1.50;99.90;;;;;;6277827;22;20182;-90
2022/12/16 02:17:00;;;;;;;6.23;3.43;;;1.50;99.90;;;;;;6279637;22;20171;-89
2022/12/16 02:20:00;;;;;;;6.03;3.57;;;1.50;99.90;;;;;;6283438;22;20167;-90
2022/12/16 02:22:45;;;;;;;5.13;3.27;;;1.50;99.90;;;;;;6281662;22;20195;-90
2022/12/16 02:25:43;;;;;;;5.70;4.13;;;1.40;99.90;;;;;;6294797;22;20187;-91
2022/12/16 02:28:21;;;;;;;6.00;4.20;;;1.40;99.90;;;;;;6251749;22;20178;-90
2022/12/16 02:31:21;;;;;;;6.13;4.40;;;1.40;99.90;;;;;;6299810;22;20197;-88
2022/12/16 02:34:10;;;;;;;7.03;4.03;;;1.30;99.90;;;;;;6295598;22;20204;-90
2022/12/16 02:37:05;;;;;;;5.50;3.63;;;1.30;99.90;;;;;;6285506;22;20185;-89
2022/12/16 02:39:40;;;;;;;5.90;4.30;;;1.30;99.90;;;;;;6278785;22;20167;-90
2022/12/16 02:42:23;;;;;;;4.30;3.90;;;1.30;99.90;;;;;;6281554;22;20505;-90
2022/12/16 02:45:00;;;;;;;4.77;3.90;;;1.30;99.90;;;;;;6281768;22;20175;-89
2022/12/16 02:47:33;;;;;;;6.60;4.03;;;1.20;99.90;;;;;;6281736;22;20177;-88
2022/12/16 02:50:07;;;;;;;6.40;3.80;;;1.20;99.90;;;;;;6279008;22;20163;-88
2022/12/16 02:52:38;;;;;;;4.70;3.60;;;1.20;99.90;;;;;;6278055;22;20191;-87
2022/12/16 02:55:12;;;;;;;5.80;3.83;;;1.10;99.90;;;;;;6278589;22;20574;-87
2022/12/16 02:58:08;;;;;;;4.33;3.30;;;1.10;99.90;;;;;;6279645;22;20280;-88
2022/12/16 03:00:49;;;;;;;4.87;3.30;;;1.00;99.90;;;;;;6255825;22;20191;-95
2022/12/16 03:03:34;;;;;;;3.90;3.17;;;1.00;99.90;;;;;;6256380;22;20193;-90
2022/12/16 03:06:17;;;;;;;5.67;3.70;;;0.90;99.90;;;;;;6277516;22;20520;-90
2022/12/16 03:08:56;;;;;;;4.07;3.63;;;0.90;99.90;;;;;;6279858;22;20171;-91
2022/12/16 03:11:29;;;;;;;4.20;3.53;;;0.90;99.90;;;;;;6278964;22;20578;-90
2022/12/16 03:14:02;;;;;;;4.27;3.50;;;0.80;99.90;;;;;;6276308;22;20198;-91
2022/12/16 03:16:36;;;;;;;5.70;3.53;;;0.80;99.90;;;;;;6279816;22;20163;-91
2022/12/16 03:19:14;;;;;;;4.80;3.80;;;0.70;99.90;;;;;;6279929;22;20240;-90
2022/12/16 03:21:53;;;;;;;5.07;4.10;;;0.70;99.90;;;;;;6278103;22;20177;-90
2022/12/16 03:24:24;;;;;;;5.57;3.87;;;0.70;99.90;;;;;;6279243;22;20269;-91
2022/12/16 03:27:03;;;;;;;6.20;4.03;;;0.70;99.90;;;;;;6276907;22;20185;-91
2022/12/16 03:29:45;;;;;;;5.20;4.40;;;0.70;99.90;;;;;;6277103;22;20178;-91
2022/12/16 03:32:24;;;;;;;6.77;4.40;;;0.70;99.90;;;;;;6257471;22;20174;-91
2022/12/16 03:35:00;;;;;;;5.83;4.20;;;0.60;99.90;;;;;;6281181;22;20175;-91
2022/12/16 03:37:38;;;;;;;5.73;4.47;;;0.60;99.90;;;;;;6279587;22;20163;-91
2022/12/16 03:40:12;;;;;;;7.40;4.17;;;0.60;99.90;;;;;;6278912;22;20226;-90
2022/12/16 03:42:51;;;;;;;7.07;4.60;;;0.50;99.90;;;;;;6279666;22;20249;-92
2022/12/16 03:45:27;;;;;;;6.53;4.53;;;0.50;99.90;;;;;;6279132;22;20693;-96
2022/12/16 03:48:01;;;;;;;6.97;5.13;;;0.50;99.90;;;;;;6279315;22;20242;-89
2022/12/16 03:50:41;;;;;;;6.70;5.30;;;0.40;99.90;;;;;;6281237;22;20245;-90
2022/12/16 03:53:12;;;;;;;7.60;5.70;;;0.40;99.90;;;;;;6277291;22;20194;-90
2022/12/16 03:55:46;;;;;;;9.50;5.87;;;0.40;99.90;;;;;;6279357;22;20244;-90
2022/12/16 03:58:17;;;;;;;6.97;5.50;;;0.40;99.90;;;;;;6278327;22;20202;-89
2022/12/16 04:00:54;;;;;;;5.83;5.20;;;0.40;99.90;;;;;;6279658;22;20197;-90
2022/12/16 04:03:26;;;;;;;6.80;5.37;;;0.40;99.90;;;;;;6283182;22;20206;-93
2022/12/16 04:05:59;;;;;;;7.07;5.07;;;0.40;99.90;;;;;;6280707;22;20179;-90
2022/12/16 04:08:30;;;;;;;4.70;4.20;;;0.30;99.90;;;;;;6279381;22;20254;-88
2022/12/16 04:25:26;;;;;;;5.97;4.67;;;0.20;99.90;;;;;;6302325;22;20151;-90
2022/12/16 04:28:00;;;;;;;6.40;4.77;;;0.20;99.90;;;;;;6300715;22;20162;-90
2022/12/16 04:30:35;;;;;;;5.17;4.53;;;0.20;99.90;;;;;;6283314;22;20171;-91
